NCAR-RAP Real-Time Weather Data

Output produced by METARs form (23 August 2019  04:57 UTC)
found at http://weather.rap.ucar.edu/surface/
 
KBWI 230354Z 16004KT 10SM FEW040 SCT075 BKN130 BKN250 23/22 A2994 RMK AO2 LTG DSNT N SLP137 T02280217
KBWI 230254Z 00000KT 10SM SCT038 BKN047 BKN130 BKN250 23/22 A2995 RMK AO2 LTG DSNT NE AND E RAB10E36 TSE09 SLP139 OCNL LTGICCC DSNT N AND DSNT E CB DSNT N AND DSNT E MOV E VCSH W-NW P0004 60121 T02330217 51008
KBWI 230210Z 00000KT 5SM -RA BR BKN040 OVC050 23/21 A2995 RMK AO2 LTG DSNT W-NE RAB10 TSE09 OCNL LTGICCC DSNT NE-E TS MOVD E CB DSNT NE-E MOV E P0000 T02280211
KBWI 230154Z VRB04KT 10SM TS FEW029 BKN042CB BKN110 23/21 A2994 RMK AO2 PK WND 28034/0108 WSHFT 0044 LTG DSNT W-N RAB0055E48 SLP135 FRQ LTGICCCCG N-E TS N-E MOV E P0117 T02280211
KBWI 230141Z 34004KT 7SM -TSRA SCT025 BKN046CB BKN065 OVC140 23/21 A2993 RMK AO2 PK WND 28034/0108 WSHFT 0044 LTG DSNT W-N RAB0055 FRQ LTGICCCCG NE-SE TS NE-SE MOV E P0117 T02280206
KBWI 230132Z 04006KT 4SM -TSRA BR BKN025CB BKN085 OVC140 22/21 A2993 RMK AO2 PK WND 28034/0108 WSHFT 0044 LTG DSNT W-N RAB0055 FRQ LTGICCCCG NE-SE TS NE-SE MOV E P0117 T02220206
KBWI 230121Z COR 27005G21KT 1SM R10/4000VP6000FT +TSRA BR FEW009 BKN016CB OVC025 22/21 A2996 RMK AO2 PK WND 28034/0108 WSHFT 0044 LTG DSNT W-N RAB0055 CONS LTGICCCCG OHD AND ALQDS TS OHD AND ALQDS MOV E P0095 T02170211
KBWI 230112Z 28021G34KT 1/2SM R10/1800V5000FT +TSRA FG BKN009CB OVC025 22/21 A2996 RMK AO2 PK WND 28034/0108 WSHFT 0044 LTG DSNT N AND NW RAB0055 CONS LTGICCCCG OHD AND ALQDS TS OHD AND ALQDS MOV E P0046 T02220211
KBWI 230058Z 31015G29KT 1 1/4SM R10/3500VP6000FT TSRA FEW013 BKN050CB OVC095 24/22 A2994 RMK AO2 PK WND 32029/0056 WSHFT 0044 LTG DSNT N AND NW RAB55 CONS LTGICCCCG OHD AND ALQDS TS OHD AND ALQDS MOV E P0002 T02440217
KBWI 230054Z 32020G25KT 8SM TS SCT025 BKN050CB OVC095 27/21 A2994 RMK AO2 LTG DSNT N AND NW TSB48 PRESRR SLP138 CONS LTGICCCCG SW-N TS SW-N MOV E T02670211
KBWI 230049Z 33012G20KT 10SM TS BKN050CB BKN070 OVC095 28/21 A2992 RMK AO2 LTG DSNT N AND NW TSB48 PRESRR CONS LTGICCCCG SW-N TS SW-N MOV E
KBWI 222354Z 17006KT 10SM FEW060 SCT080 BKN150 BKN250 31/22 A2986 RMK AO2 SLP112 OCNL LTGICCC DSNT NW-N CB DSNT W-N MOV E T03060222 10350 20289 55002
KBWI 222254Z 16004KT 10SM SCT060 SCT100 BKN160 BKN250 33/20 A2986 RMK AO2 SLP110 T03280200
KBWI 222154Z 20008KT 10SM FEW060 FEW160 BKN250 34/19 A2986 RMK AO2 SLP110 TCU DSNT NW T03440194
KBWI 222054Z 25009KT 10SM SCT060 BKN250 34/19 A2987 RMK AO2 SLP113 T03440189 56018
KBWI 221954Z 24008KT 220V290 10SM SCT055 SCT150 BKN250 34/19 A2988 RMK AO2 SLP117 T03390194
KBWI 221854Z 28011G15KT 10SM SCT050 BKN250 34/19 A2991 RMK AO2 SLP127 T03440189
KBWI 221754Z 26010G14KT 10SM FEW040 SCT250 34/19 A2992 RMK AO2 SLP131 T03440189 10344 20239 56010
KBWI 221654Z 25011KT 10SM FEW040 SCT250 33/20 A2993 RMK AO2 SLP133 T03280200
KBWI 221554Z 24011G14KT 10SM FEW040 SCT250 32/19 A2994 RMK AO2 SLP138 T03170194
KBWI 221454Z 28007KT 10SM FEW060 SCT250 31/20 A2995 RMK AO2 SLP141 T03110200 53003
KBWI 221354Z 26007G18KT 10SM SCT250 29/21 A2995 RMK AO2 SLP139 T02940211
KBWI 221254Z 27006KT 10SM FEW180 SCT250 27/21 A2994 RMK AO2 SLP138 T02720211
KBWI 221154Z 26004KT 10SM SCT180 SCT250 24/21 A2994 RMK AO2 SLP138 70007 T02390211 10244 20217 51020
KBWI 221054Z 27004KT 10SM SCT180 BKN250 23/21 A2993 RMK AO2 SLP132 T02280211
KBWI 220954Z 27004KT 10SM BKN250 22/21 A2990 RMK AO2 SLP125 T02220211
KBWI 220854Z 25004KT 10SM BKN250 23/22 A2988 RMK AO2 SLP117 T02280217 56009
KBWI 220754Z 19003KT 10SM SCT250 23/22 A2989 RMK AO2 SLP118 T02330222
KBWI 220654Z 25003KT 10SM SCT250 23/22 A2990 RMK AO2 SLP123 T02280222
KBWI 220554Z 22004KT 10SM FEW070 SCT110 BKN250 24/23 A2991 RMK AO2 SLP126 60007 T02390228 10261 20233 50004
KBWI 220454Z 26004KT 10SM SCT070 SCT110 BKN250 23/22 A2991 RMK AO2 SLP127 T02330222 403500217
KBWI 220354Z 00000KT 10SM FEW065 FEW100 BKN250 24/22 A2990 RMK AO2 LTG DSNT S SLP125 OCNL LTGIC DSNT SE CB DSNT SE MOV SE T02390222
KBWI 220254Z COR 25003KT 10SM FEW065 SCT095 BKN250 24/22 A2990 RMK AO2 LTG DSNT SW RAB00E09 SLP122 OCNL LTGIC DSNT S CB DSNT S MOV SE P0000 60007 T02390222 50012
KBWI 220154Z 22005KT 10SM FEW070 BKN085 OVC100 25/22 A2990 RMK AO2 WSHFT 0113 RAE01B19E39 SLP123 P0007 T02500217
KBWI 220133Z 19009KT 6SM -RA BKN060 BKN080 OVC100 25/21 A2989 RMK AO2 WSHFT 0113 RAE01B19 P0007 T02500211
KBWI 220054Z 00000KT 10SM -RA FEW065 BKN085 OVC100 26/21 A2988 RMK AO2 RAB51 SLP117 P0000 T02610206
KBWI 212354Z 24008KT 10SM SCT040CB BKN070 BKN120 BKN250 26/20 A2986 RMK AO2 LTG DSNT SW SLP110 CB NE MOV E T02610200 10350 20261 50001
KBWI 212254Z 21009G18KT 10SM FEW050 SCT070 BKN100 BKN250 27/21 A2987 RMK AO2 LTG DSNT W AND NW SLP115 T02720211
KBWI 212154Z 20003KT 10SM FEW050 SCT065 BKN090 BKN250 32/23 A2986 RMK AO2 SLP110 T03220228
KBWI 212054Z 19008KT 10SM FEW049 SCT070 SCT100 BKN250 34/22 A2986 RMK AO2 SLP109 T03390217 58013
KBWI 211954Z 24009KT 10SM SCT047 SCT065 BKN250 34/21 A2987 RMK AO2 SLP112 T03440211
KBWI 211854Z 24010G14KT 10SM BKN050 BKN120 BKN250 34/21 A2988 RMK AO2 SLP118 T03390206
KBWI 211754Z 18008KT 10SM BKN044 BKN250 34/21 A2989 RMK AO2 SLP121 T03390206 10344 20233 58022
KBWI 211654Z 23008KT 10SM SCT040 SCT120 SCT250 33/21 A2991 RMK AO2 SLP128 T03330211
KBWI 211554Z 23008G15KT 190V250 10SM SCT032 SCT120 BKN250 32/22 A2994 RMK AO2 SLP138 T03170217
KBWI 211454Z 18008KT 10SM SCT025 SCT120 BKN250 31/22 A2996 RMK AO2 SLP143 T03060222 56008
KBWI 211354Z 24008KT 10SM SCT013 SCT120 BKN250 27/22 A2996 RMK AO2 SLP145 T02720217
KBWI 211254Z 19005KT 10SM FEW012 SCT120 BKN250 25/21 A2997 RMK AO2 SLP147 T02500211
KBWI 211245Z VRB05KT 10SM FEW012 SCT120 BKN250 24/21 A2997 RMK AO2 T02440211
KBWI 211154Z 00000KT 10SM SCT120 BKN250 23/21 A2998 RMK AO2 SLP151 T02330206 10233 20217 53003
KBWI 211054Z 00000KT 10SM SCT120 BKN250 22/21 A2998 RMK AO2 SLP150 T02170206
KBWI 210954Z 14003KT 10SM FEW140 BKN250 22/20 A2997 RMK AO2 SLP147 T02170200
KBWI 210854Z 00000KT 10SM SCT140 BKN250 23/21 A2997 RMK AO2 SLP148 T02280206 58012
KBWI 210754Z 26005KT 10SM FEW050 BKN140 BKN250 22/21 A2998 RMK AO2 SLP151 T02220206
KBWI 210654Z 23003KT 10SM SCT140 BKN250 22/20 A3001 RMK AO2 SLP159 T02170200
KBWI 210554Z 23003KT 10SM FEW050 SCT140 BKN250 23/21 A3001 RMK AO2 SLP160 T02280206 10256 20222 58001
KBWI 210454Z 27006KT 10SM SCT140 SCT250 22/20 A3004 RMK AO2 SLP172 T02220200 403610222
KBWI 210354Z 16007KT 10SM FEW085 FEW140 SCT250 23/21 A3006 RMK AO2 LTG DSNT SE AND S SLP177 T02330206
KBWI 210254Z 00000KT 10SM FEW085 FEW140 FEW250 24/21 A3001 RMK AO2 SLP161 OCNL LTGIC DSNT SE CB DSNT SE MOV E T02390211 58014
KBWI 210154Z 21003KT 10SM FEW085 SCT140 SCT250 25/21 A3001 RMK AO2 SLP162 FRQ LTGICCC DSNT SE-S CB DSNT SE-S MOV E T02500211
KBWI 210054Z 20007KT 10SM FEW085 BKN140 BKN250 25/21 A3005 RMK AO2 SLP176 T02500211
KBWI 202354Z 24010KT 10SM FEW030 FEW085 BKN140 BKN250 26/21 A3005 RMK AO2 PRESRR SLP175 60000 T02560206 10361 20256 53013
KBWI 202254Z 27008KT 10SM FEW055 FEW085 BKN140 BKN250 26/22 A3002 RMK AO2 RAB17E34 TSE20 SLP164 CB DSNT NW-N MOV N TCU DSNT SW-W MAMMATUS NE-OHD-SW P0000 T02610222
KBWI 202221Z 23006KT 10SM -RA SCT055CB SCT085 BKN100 BKN160 29/21 A3001 RMK AO2 RAB17 TSE20 TS DSPTD CB OHD-W MOV N CBMAM OHD-S P0000 T02890211
KBWI 202154Z 19011G16KT 10SM TS SCT060CB SCT085 BKN160 BKN250 30/21 A3003 RMK AO2 TSB53 SLP167 OCNL LTGICCCCG SW-W TS SW-W MOV N T03000206
KBWI 202054Z 12011KT 10SM SCT055TCU SCT110 SCT160 BKN250 34/20 A3001 RMK AO2 LTG DSNT S SLP162 CB DSNT SE-SW MOV STNRY TCU DSNT NE AND OHD-W T03390200 56017
KBWI 201954Z 09009KT 060V130 10SM SCT060 SCT160 BKN250 35/21 A3002 RMK AO2 SLP165 CB DSNT SE AND DSNT S MOV STNRY T03500211
KBWI 201854Z 07007KT 10SM SCT050 SCT100 BKN160 BKN300 34/21 A3004 RMK AO2 SLP171 CB DSNT SE MOV STNRY T03390211
KBWI 201754Z 10008KT 10SM FEW080 SCT100 BKN300 34/20 A3006 RMK AO2 SLP178 CB DSNT SE MOV E T03440200 10350 20278 57011